createdAt,value
2023-05-08T00:02:04.731Z,99909.44
2023-05-08T00:04:32.767Z,99899.47
2023-05-08T00:07:00.523Z,99908.41
2023-05-08T00:09:28.173Z,99906.06
2023-05-08T00:11:56.115Z,99910.37
2023-05-08T00:14:23.843Z,99913.31
2023-05-08T00:16:51.599Z,99909.78
2023-05-08T00:19:19.799Z,99910.75
2023-05-08T00:21:47.417Z,99910.75
2023-05-08T00:24:15.222Z,99909.63
2023-05-08T00:26:43.388Z,99907.53
2023-05-08T00:29:11.269Z,99904.34
2023-05-08T00:31:38.972Z,99907.31
2023-05-08T00:34:06.947Z,99910.81
2023-05-08T00:36:34.531Z,99907.19
2023-05-08T00:39:02.194Z,99911.69
2023-05-08T00:41:30.321Z,99911.34
2023-05-08T00:43:58.291Z,99921.47
2023-05-08T00:46:26.162Z,99913.25
2023-05-08T00:48:54.253Z,99919.06
2023-05-08T00:51:22.032Z,99915.13
2023-05-08T00:53:49.681Z,99916.63
2023-05-08T00:56:18.843Z,99916.72
2023-05-08T00:58:46.887Z,99907.03
2023-05-08T01:01:15.169Z,99910.56
2023-05-08T01:03:43.555Z,99905.47
2023-05-08T01:06:11.321Z,99910.66
2023-05-08T01:08:39.285Z,99908.03
2023-05-08T01:11:19.907Z,99912.59
2023-05-08T01:14:24.792Z,99915.22
2023-05-08T01:17:21.735Z,99914.38
2023-05-08T01:20:03.499Z,99916.78
2023-05-08T01:22:49.771Z,99927.97
2023-05-08T01:25:41.828Z,99923.66
2023-05-08T01:28:26.357Z,99932.13
2023-05-08T01:31:18.336Z,99942.59
2023-05-08T01:33:59.815Z,99951.75
2023-05-08T01:36:37.583Z,99939.75
2023-05-08T01:39:17.824Z,99946.69
2023-05-08T01:41:50.686Z,99946.66
2023-05-08T01:44:21.700Z,99950.16
2023-05-08T01:46:50.514Z,99954.41
2023-05-08T01:49:28.489Z,99955.25
2023-05-08T01:51:59.501Z,99957.09
2023-05-08T01:54:35.361Z,99963.16
2023-05-08T01:57:03.696Z,99951.12
2023-05-08T01:59:33.741Z,99951.53
2023-05-08T02:02:02.261Z,99947.53
2023-05-08T02:04:30.841Z,99955.81
2023-05-08T02:06:58.912Z,99952.59
2023-05-08T02:09:28.649Z,99953.41
2023-05-08T02:11:57.123Z,99959.50
2023-05-08T02:14:26.825Z,99963.56
2023-05-08T02:16:55.792Z,99959.25
2023-05-08T02:19:25.251Z,99966.50
2023-05-08T02:21:55.350Z,99967.84
2023-05-08T02:24:24.147Z,99972.13
2023-05-08T02:26:53.223Z,99960.34
2023-05-08T02:29:22.485Z,99963.56
2023-05-08T02:32:05.039Z,99964.66
2023-05-08T02:35:02.000Z,99975.09
2023-05-08T02:37:32.652Z,99982.31
2023-05-08T02:40:01.498Z,99975.63
2023-05-08T02:42:30.655Z,99971.84
2023-05-08T02:44:59.551Z,99972.88
2023-05-08T02:47:37.269Z,99968.59
2023-05-08T02:50:15.244Z,99975.25
2023-05-08T02:52:52.878Z,99975.84
2023-05-08T02:55:27.448Z,99976.88
2023-05-08T02:58:44.710Z,99976.81
2023-05-08T03:01:41.242Z,99980.28
2023-05-08T03:04:11.408Z,99990.81
2023-05-08T03:06:42.876Z,99987.63
2023-05-08T03:09:12.404Z,99981.91
2023-05-08T03:11:42.529Z,99986.13
2023-05-08T03:14:12.737Z,99983.16
2023-05-08T03:16:42.050Z,99983.78
2023-05-08T03:19:45.144Z,99985.41
2023-05-08T03:22:17.416Z,99985.94
2023-05-08T03:24:48.541Z,99983.53
2023-05-08T03:27:17.988Z,99978.84
2023-05-08T03:29:46.373Z,99987.50
2023-05-08T03:32:14.678Z,99984.03
2023-05-08T03:34:46.690Z,99989.06
2023-05-08T03:37:14.997Z,99983.09
2023-05-08T03:39:46.429Z,99984.72
2023-05-08T03:42:14.456Z,99992.47
2023-05-08T03:44:43.058Z,99988.81
2023-05-08T03:47:11.484Z,99985.03
2023-05-08T03:49:42.617Z,99979.28
2023-05-08T03:52:12.269Z,99985.78
2023-05-08T03:54:41.169Z,99990.31
2023-05-08T03:57:09.558Z,99988.78
2023-05-08T04:00:02.359Z,99993.37
2023-05-08T04:03:07.913Z,99996.56
2023-05-08T04:05:39.888Z,99998.12
2023-05-08T04:08:27.188Z,100003.19
2023-05-08T04:11:04.491Z,99993.22
2023-05-08T04:13:37.327Z,99997.09
2023-05-08T04:16:22.210Z,100008.19
2023-05-08T04:19:01.964Z,100005.19
2023-05-08T04:21:34.263Z,100009.44
2023-05-08T04:24:03.440Z,100017.22
2023-05-08T04:26:31.909Z,100017.91
2023-05-08T04:29:20.452Z,100021.28
2023-05-08T04:31:50.693Z,100023.56
2023-05-08T04:34:19.485Z,100034.94
2023-05-08T04:36:47.499Z,100030.06
2023-05-08T04:39:15.757Z,100034.25
2023-05-08T04:41:44.603Z,100034.84
2023-05-08T04:44:14.574Z,100040.31
2023-05-08T04:46:45.803Z,100045.59
2023-05-08T04:49:14.618Z,100042.50
2023-05-08T04:51:44.652Z,100047.56
2023-05-08T04:54:12.713Z,100057.91
2023-05-08T04:56:44.930Z,100060.75
2023-05-08T04:59:14.200Z,100066.56
2023-05-08T05:01:51.615Z,100061.84
2023-05-08T05:04:25.965Z,100068.41
2023-05-08T05:06:55.771Z,100068.03
2023-05-08T05:09:23.690Z,100069.44
2023-05-08T05:11:51.500Z,100079.38
2023-05-08T05:14:20.280Z,100077.63
2023-05-08T05:16:48.754Z,100077.13
2023-05-08T05:19:19.554Z,100081.72
2023-05-08T05:21:47.428Z,100084.66
2023-05-08T05:24:15.719Z,100078.69
2023-05-08T05:26:43.462Z,100078.19
2023-05-08T05:29:11.588Z,100086.69
2023-05-08T05:31:39.550Z,100093.75
2023-05-08T05:34:07.570Z,100093.38
2023-05-08T05:36:36.154Z,100089.78
2023-05-08T05:39:03.889Z,100098.56
2023-05-08T05:41:31.717Z,100087.38
2023-05-08T05:43:59.755Z,100093.31
2023-05-08T05:46:27.670Z,100090.78
2023-05-08T05:48:55.400Z,100090.88
2023-05-08T05:51:23.611Z,100095.47
2023-05-08T05:53:51.267Z,100093.88
2023-05-08T05:56:19.213Z,100097.69
2023-05-08T05:58:47.562Z,100092.13
2023-05-08T06:01:15.478Z,100104.50
2023-05-08T06:03:44.230Z,100093.69
2023-05-08T06:06:11.903Z,100088.75
2023-05-08T06:08:39.534Z,100097.03
2023-05-08T06:11:07.897Z,100100.03
2023-05-08T06:13:35.577Z,100104.72
2023-05-08T06:16:05.203Z,100100.88
2023-05-08T06:18:33.100Z,100101.31
2023-05-08T06:21:00.891Z,100098.88
2023-05-08T06:23:28.567Z,100100.94
2023-05-08T06:25:56.522Z,100101.41
2023-05-08T06:28:24.314Z,100108.75
2023-05-08T06:30:52.548Z,100094.56
2023-05-08T06:33:20.492Z,100105.28
2023-05-08T06:35:48.718Z,100106.62
2023-05-08T06:38:16.612Z,100114.44
2023-05-08T06:40:45.728Z,100108.25
2023-05-08T06:43:13.637Z,100109.72
2023-05-08T06:45:41.293Z,100108.34
2023-05-08T06:48:09.334Z,100104.28
2023-05-08T06:50:40.143Z,100109.19
2023-05-08T06:53:07.901Z,100111.16
2023-05-08T06:55:35.997Z,100115.50
2023-05-08T06:58:03.653Z,100128.03
2023-05-08T07:00:31.458Z,100134.00
2023-05-08T07:02:59.554Z,100121.72
2023-05-08T07:05:27.343Z,100120.84
2023-05-08T07:07:55.115Z,100116.38
2023-05-08T07:10:23.098Z,100117.12
2023-05-08T07:12:50.812Z,100120.72
2023-05-08T07:17:52.598Z,100127.94
2023-05-08T07:20:20.301Z,100124.75
2023-05-08T07:22:48.115Z,100121.34
2023-05-08T07:25:16.779Z,100126.72
2023-05-08T07:27:44.806Z,100123.34
2023-05-08T07:30:12.644Z,100128.56
2023-05-08T07:32:40.652Z,100130.09
2023-05-08T07:35:10.450Z,100126.13
2023-05-08T07:37:39.765Z,100138.38
2023-05-08T07:40:08.064Z,100129.09
2023-05-08T07:42:42.414Z,100120.38
2023-05-08T07:45:11.561Z,100134.50
2023-05-08T07:47:48.752Z,100132.16
2023-05-08T07:50:16.830Z,100126.25
2023-05-08T07:52:49.794Z,100133.66
2023-05-08T07:55:18.995Z,100127.59
2023-05-08T07:57:46.695Z,100133.41
2023-05-08T08:00:15.365Z,100127.75
2023-05-08T08:02:44.996Z,100125.44
2023-05-08T08:05:13.146Z,100125.75
2023-05-08T08:07:41.182Z,100129.91
2023-05-08T08:10:09.311Z,100122.19
2023-05-08T08:12:37.229Z,100119.28
2023-05-08T08:15:05.391Z,100122.28
2023-05-08T08:17:33.327Z,100120.56
2023-05-08T08:20:01.044Z,100120.62
2023-05-08T08:22:28.847Z,100117.75
2023-05-08T08:24:56.941Z,100122.94
2023-05-08T08:27:24.531Z,100116.56
2023-05-08T08:29:58.579Z,100123.72
2023-05-08T08:32:32.846Z,100115.44
2023-05-08T08:35:00.881Z,100121.59
2023-05-08T08:37:28.504Z,100122.28
2023-05-08T08:39:56.574Z,100116.88
2023-05-08T08:42:24.491Z,100118.94
2023-05-08T08:44:52.770Z,100117.97
2023-05-08T08:47:23.047Z,100113.53
2023-05-08T08:49:51.348Z,100110.16
2023-05-08T08:52:47.548Z,100105.88
2023-05-08T08:55:18.276Z,100100.41
2023-05-08T08:57:58.530Z,100111.37
2023-05-08T09:00:28.772Z,100113.34
2023-05-08T09:02:56.487Z,100114.00
2023-05-08T09:05:24.282Z,100117.03
2023-05-08T09:07:54.659Z,100112.84
2023-05-08T09:10:24.377Z,100114.53
2023-05-08T09:12:52.687Z,100114.53
2023-05-08T09:15:20.374Z,100117.06
2023-05-08T09:17:48.104Z,100122.13
2023-05-08T09:20:16.305Z,100117.72
2023-05-08T09:22:44.351Z,100117.97
2023-05-08T09:25:12.338Z,100116.31
2023-05-08T09:27:40.604Z,100112.81
2023-05-08T09:30:09.692Z,100105.19
2023-05-08T09:32:40.619Z,100115.37
2023-05-08T09:35:10.383Z,100094.09
2023-05-08T09:37:39.451Z,100116.41
2023-05-08T09:40:27.274Z,100118.00
2023-05-08T09:42:55.170Z,100128.63
2023-05-08T09:45:30.740Z,100120.06
2023-05-08T09:47:58.872Z,100120.88
2023-05-08T09:50:26.634Z,100126.03
2023-05-08T09:52:54.380Z,100114.25
2023-05-08T09:55:22.383Z,100112.03
2023-05-08T09:57:58.644Z,100112.00
2023-05-08T10:00:29.217Z,100107.47
2023-05-08T10:03:02.119Z,100102.34
2023-05-08T10:05:34.993Z,100106.09
2023-05-08T10:08:23.128Z,100092.16
2023-05-08T10:10:51.251Z,100096.97
2023-05-08T10:13:19.294Z,100093.28
2023-05-08T10:15:52.778Z,100096.12
2023-05-08T10:18:22.378Z,100097.34
2023-05-08T10:20:50.544Z,100088.41
2023-05-08T10:23:18.500Z,100086.47
2023-05-08T10:25:48.293Z,100086.69
2023-05-08T10:28:35.902Z,100086.78
2023-05-08T10:31:04.173Z,100088.88
2023-05-08T10:33:32.075Z,100084.22
2023-05-08T10:36:00.379Z,100082.19
2023-05-08T10:38:30.752Z,100082.47
2023-05-08T10:41:02.286Z,100072.88
2023-05-08T10:43:30.513Z,100067.87
2023-05-08T10:45:58.854Z,100065.22
2023-05-08T10:48:36.591Z,100072.44
2023-05-08T10:51:35.638Z,100080.81
2023-05-08T10:54:13.660Z,100074.75
2023-05-08T10:56:41.517Z,100071.81
2023-05-08T10:59:17.922Z,100080.53
2023-05-08T11:01:49.873Z,100071.84
2023-05-08T11:04:22.489Z,100073.03
2023-05-08T11:06:50.901Z,100065.75
2023-05-08T11:09:23.062Z,100064.88
2023-05-08T11:12:07.257Z,100064.53
2023-05-08T11:14:37.261Z,100053.56
2023-05-08T11:17:06.004Z,100061.00
2023-05-08T11:19:34.152Z,100057.34
2023-05-08T11:22:10.868Z,100057.56
2023-05-08T11:24:55.056Z,100061.03
2023-05-08T11:27:50.506Z,100056.59
2023-05-08T11:30:25.407Z,100068.41
2023-05-08T11:33:16.591Z,100068.31
2023-05-08T11:35:53.941Z,100069.97
2023-05-08T11:38:27.779Z,100058.50
2023-05-08T11:41:00.897Z,100062.75
2023-05-08T11:43:34.275Z,100058.81
2023-05-08T11:46:07.457Z,100062.19
2023-05-08T11:48:35.706Z,100054.44
2023-05-08T11:51:03.776Z,100060.13
2023-05-08T11:53:31.753Z,100062.06
2023-05-08T11:55:59.861Z,100067.22
2023-05-08T11:58:28.194Z,100061.91
2023-05-08T12:00:56.004Z,100056.56
2023-05-08T12:03:24.937Z,100059.28
2023-05-08T12:05:56.300Z,100058.28
2023-05-08T12:08:26.263Z,100052.84
2023-05-08T12:10:57.079Z,100052.34
2023-05-08T12:13:27.264Z,100061.34
2023-05-08T12:16:00.475Z,100048.44
2023-05-08T12:18:28.792Z,100056.75
2023-05-08T12:21:01.614Z,100048.75
2023-05-08T12:23:30.052Z,100058.09
2023-05-08T12:26:00.930Z,100062.81
2023-05-08T12:28:30.400Z,100047.22
2023-05-08T12:30:58.454Z,100037.72
2023-05-08T12:33:26.279Z,100038.41
2023-05-08T12:35:56.625Z,100049.97
2023-05-08T12:38:27.790Z,100043.78
2023-05-08T12:40:55.976Z,100041.53
2023-05-08T12:43:36.964Z,100046.53
2023-05-08T12:46:11.152Z,100036.75
2023-05-08T12:48:39.360Z,100032.56
2023-05-08T12:51:07.297Z,100044.69
2023-05-08T12:53:34.978Z,100041.69
2023-05-08T12:56:03.863Z,100048.50
2023-05-08T12:58:33.425Z,100048.25
2023-05-08T13:01:11.638Z,100045.44
2023-05-08T13:03:40.853Z,100041.03
2023-05-08T13:06:19.728Z,100040.44
2023-05-08T13:08:53.418Z,100044.59
2023-05-08T13:11:33.452Z,100042.28
2023-05-08T13:14:01.437Z,100045.31
2023-05-08T13:16:29.632Z,100047.44
2023-05-08T13:18:57.338Z,100041.81
2023-05-08T13:21:27.336Z,100039.19
2023-05-08T13:23:55.404Z,100039.88
2023-05-08T13:26:25.786Z,100043.19
2023-05-08T13:28:56.216Z,100043.63
2023-05-08T13:31:24.411Z,100040.03
2023-05-08T13:33:52.198Z,100038.28
2023-05-08T13:36:20.395Z,100037.56
2023-05-08T13:38:48.126Z,100043.41
2023-05-08T13:41:15.757Z,100039.66
2023-05-08T13:43:44.089Z,100043.75
2023-05-08T13:48:39.123Z,100039.03
2023-05-08T13:51:07.041Z,100028.41
2023-05-08T13:53:34.748Z,100040.50
2023-05-08T13:56:02.319Z,100033.37
2023-05-08T13:58:30.209Z,100026.56
2023-05-08T14:00:57.858Z,100042.03
2023-05-08T14:03:25.979Z,100030.44
2023-05-08T14:05:53.869Z,100039.09
2023-05-08T14:08:21.560Z,100042.00
2023-05-08T14:10:49.491Z,100045.31
2023-05-08T14:13:17.666Z,100037.13
2023-05-08T14:15:45.612Z,100030.31
2023-05-08T14:18:13.845Z,100030.66
2023-05-08T14:20:42.086Z,100033.56
2023-05-08T14:23:10.764Z,100045.53
2023-05-08T14:25:38.718Z,100044.37
2023-05-08T14:28:06.375Z,100042.16
2023-05-08T14:30:33.982Z,100044.94
2023-05-08T14:33:02.378Z,100048.97
2023-05-08T14:35:30.097Z,100047.34
2023-05-08T14:37:57.903Z,100050.41
2023-05-08T14:40:25.773Z,100053.63
2023-05-08T14:42:53.554Z,100057.34
2023-05-08T14:45:21.254Z,100061.75
2023-05-08T14:47:49.342Z,100054.66
2023-05-08T14:50:17.564Z,100047.44
2023-05-08T14:52:45.692Z,100047.44
2023-05-08T14:55:14.065Z,100044.25
2023-05-08T14:57:42.284Z,100047.28
2023-05-08T15:00:10.834Z,100056.12
2023-05-08T15:02:39.108Z,100060.56
2023-05-08T15:05:10.913Z,100063.63
2023-05-08T15:07:45.706Z,100061.97
2023-05-08T15:10:13.481Z,100057.66
2023-05-08T15:12:41.367Z,100059.38
2023-05-08T15:15:09.624Z,100058.34
2023-05-08T15:17:37.324Z,100059.84
2023-05-08T15:20:05.996Z,100064.94
2023-05-08T15:22:34.258Z,100073.53
2023-05-08T15:25:01.975Z,100067.41
2023-05-08T15:27:30.034Z,100076.69
2023-05-08T15:29:58.279Z,100070.41
2023-05-08T15:32:26.098Z,100068.44
2023-05-08T15:34:54.363Z,100071.81
2023-05-08T15:37:22.326Z,100078.47
2023-05-08T15:39:49.965Z,100071.56
2023-05-08T15:42:17.581Z,100079.22
2023-05-08T15:47:16.612Z,100084.06
2023-05-08T15:49:44.507Z,100086.62
2023-05-08T15:52:12.347Z,100092.19
2023-05-08T15:54:39.989Z,100082.50
2023-05-08T15:57:07.669Z,100088.28
2023-05-08T15:59:35.756Z,100079.78
2023-05-08T16:02:04.281Z,100083.88
2023-05-08T16:04:32.512Z,100091.03
2023-05-08T16:07:00.422Z,100079.62
2023-05-08T16:09:27.999Z,100087.47
2023-05-08T16:11:56.132Z,100088.75
2023-05-08T16:14:29.126Z,100083.50
2023-05-08T16:16:57.017Z,100088.66
2023-05-08T16:19:24.685Z,100101.25
2023-05-08T16:21:52.457Z,100105.34
2023-05-08T16:24:20.504Z,100103.62
2023-05-08T16:26:48.139Z,100099.03
2023-05-08T16:29:16.463Z,100108.66
2023-05-08T16:31:47.387Z,100104.47
2023-05-08T16:34:15.325Z,100114.41
2023-05-08T16:36:43.102Z,100102.72
2023-05-08T16:39:12.730Z,100115.28
2023-05-08T16:41:40.494Z,100104.13
2023-05-08T16:44:08.159Z,100114.78
2023-05-08T16:46:36.080Z,100115.63
2023-05-08T16:49:03.693Z,100114.09
2023-05-08T16:51:31.310Z,100115.16
2023-05-08T16:53:59.603Z,100114.75
2023-05-08T16:56:30.581Z,100126.44
2023-05-08T16:58:58.628Z,100133.28
2023-05-08T17:01:27.026Z,100140.59
2023-05-08T17:03:54.769Z,100138.84
2023-05-08T17:06:22.453Z,100138.72
2023-05-08T17:08:50.513Z,100143.56
2023-05-08T17:11:18.150Z,100150.16
2023-05-08T17:13:46.596Z,100151.19
2023-05-08T17:16:14.587Z,100159.72
2023-05-08T17:18:42.248Z,100158.38
2023-05-08T17:21:10.371Z,100161.69
2023-05-08T17:23:38.649Z,100164.50
2023-05-08T17:26:06.340Z,100162.72
2023-05-08T17:28:34.059Z,100166.19
2023-05-08T17:31:01.953Z,100171.12
2023-05-08T17:33:29.694Z,100190.44
2023-05-08T17:35:57.378Z,100185.59
2023-05-08T17:38:25.354Z,100191.59
2023-05-08T17:40:58.215Z,100194.13
2023-05-08T17:43:29.393Z,100199.81
2023-05-08T17:45:57.603Z,100215.78
2023-05-08T17:48:25.377Z,100210.37
2023-05-08T17:50:54.650Z,100216.66
2023-05-08T17:53:25.611Z,100222.16
2023-05-08T17:55:53.608Z,100220.47
2023-05-08T17:58:21.386Z,100228.41
2023-05-08T18:00:49.300Z,100227.19
2023-05-08T18:03:19.343Z,100224.41
2023-05-08T18:05:47.251Z,100227.81
2023-05-08T18:08:15.342Z,100233.37
2023-05-08T18:10:43.841Z,100232.00
2023-05-08T18:13:11.828Z,100234.97
2023-05-08T18:15:40.462Z,100245.41
2023-05-08T18:18:08.920Z,100245.62
2023-05-08T18:20:36.789Z,100256.75
2023-05-08T18:23:04.490Z,100248.44
2023-05-08T18:25:32.490Z,100254.66
2023-05-08T18:28:00.908Z,100261.16
2023-05-08T18:30:28.735Z,100266.84
2023-05-08T18:32:56.800Z,100269.50
2023-05-08T18:35:24.672Z,100284.09
2023-05-08T18:37:52.461Z,100285.75
2023-05-08T18:40:20.928Z,100291.06
2023-05-08T18:42:48.806Z,100287.03
2023-05-08T18:45:16.642Z,100290.75
2023-05-08T18:47:45.182Z,100296.94
2023-05-08T18:50:14.898Z,100299.41
2023-05-08T18:52:43.263Z,100303.06
2023-05-08T18:55:11.223Z,100303.31
2023-05-08T18:57:38.910Z,100306.03
2023-05-08T19:00:07.278Z,100313.19
2023-05-08T19:02:35.712Z,100308.75
2023-05-08T19:05:04.204Z,100317.94
2023-05-08T19:07:32.123Z,100320.59
2023-05-08T19:10:00.170Z,100326.78
2023-05-08T19:12:28.226Z,100334.63
2023-05-08T19:14:55.906Z,100328.16
2023-05-08T19:17:24.050Z,100336.34
2023-05-08T19:19:52.912Z,100326.81
2023-05-08T19:22:21.001Z,100337.34
2023-05-08T19:24:49.130Z,100336.31
2023-05-08T19:27:17.211Z,100325.81
2023-05-08T19:29:45.624Z,100333.91
2023-05-08T19:32:13.698Z,100332.37
2023-05-08T19:34:41.588Z,100326.75
2023-05-08T19:37:09.521Z,100327.12
2023-05-08T19:39:37.745Z,100325.06
2023-05-08T19:42:05.667Z,100320.50
2023-05-08T19:44:33.342Z,100323.81
2023-05-08T19:47:03.144Z,100332.16
2023-05-08T19:49:31.662Z,100331.44
2023-05-08T19:51:59.477Z,100330.03
2023-05-08T19:54:28.957Z,100335.13
2023-05-08T19:56:56.752Z,100343.34
2023-05-08T19:59:24.874Z,100337.44
2023-05-08T20:01:52.884Z,100340.25
2023-05-08T20:04:21.006Z,100330.88
2023-05-08T20:06:48.681Z,100338.87
2023-05-08T20:09:16.317Z,100337.62
2023-05-08T20:11:44.559Z,100334.69
2023-05-08T20:14:12.596Z,100332.44
2023-05-08T20:16:40.314Z,100333.84
2023-05-08T20:19:08.317Z,100334.47
2023-05-08T20:21:36.347Z,100333.69
2023-05-08T20:24:04.128Z,100339.06
2023-05-08T20:26:33.161Z,100334.59
2023-05-08T20:29:00.788Z,100339.44
2023-05-08T20:31:28.602Z,100339.69
2023-05-08T20:33:56.790Z,100330.31
2023-05-08T20:36:24.428Z,100328.22
2023-05-08T20:38:52.351Z,100330.81
2023-05-08T20:41:20.372Z,100338.53
2023-05-08T20:43:48.061Z,100342.66
2023-05-08T20:46:15.733Z,100341.34
2023-05-08T20:48:43.884Z,100336.41
2023-05-08T20:51:11.485Z,100336.66
2023-05-08T20:53:39.223Z,100331.41
2023-05-08T20:56:07.077Z,100332.25
2023-05-08T20:58:34.838Z,100333.75
2023-05-08T21:01:02.703Z,100338.87
2023-05-08T21:03:30.746Z,100329.19
2023-05-08T21:05:58.414Z,100339.91
2023-05-08T21:08:26.024Z,100334.88
2023-05-08T21:10:54.086Z,100339.22
2023-05-08T21:13:21.680Z,100338.41
2023-05-08T21:15:49.588Z,100338.09
2023-05-08T21:18:17.932Z,100334.03
2023-05-08T21:20:45.631Z,100328.50
2023-05-08T21:23:13.203Z,100335.69
2023-05-08T21:25:41.205Z,100334.94
2023-05-08T21:28:08.876Z,100327.97
2023-05-08T21:30:36.595Z,100333.38
2023-05-08T21:33:04.549Z,100322.69
2023-05-08T21:35:32.365Z,100322.16
2023-05-08T21:38:00.042Z,100320.50
2023-05-08T21:40:27.998Z,100318.69
2023-05-08T21:42:55.662Z,100321.87
2023-05-08T21:45:23.358Z,100326.69
2023-05-08T21:47:51.450Z,100318.44
2023-05-08T21:50:19.177Z,100321.38
2023-05-08T21:52:47.020Z,100322.69
2023-05-08T21:55:15.284Z,100318.75
2023-05-08T21:57:43.268Z,100309.69
2023-05-08T22:00:11.425Z,100313.38
2023-05-08T22:02:47.164Z,100312.31
2023-05-08T22:05:15.487Z,100312.06
2023-05-08T22:07:43.502Z,100306.94
2023-05-08T22:10:11.273Z,100313.66
2023-05-08T22:12:39.397Z,100316.38
2023-05-08T22:15:18.064Z,100313.94
2023-05-08T22:17:54.048Z,100307.28
2023-05-08T22:20:22.079Z,100304.87
2023-05-08T22:22:49.784Z,100306.47
2023-05-08T22:25:17.695Z,100296.84
2023-05-08T22:27:46.159Z,100298.72
2023-05-08T22:30:14.443Z,100310.22
2023-05-08T22:32:42.405Z,100304.06
2023-05-08T22:35:10.105Z,100296.88
2023-05-08T22:37:37.710Z,100293.91
2023-05-08T22:40:06.702Z,100294.97
2023-05-08T22:42:34.389Z,100282.38
2023-05-08T22:45:02.040Z,100272.72
2023-05-08T22:47:30.328Z,100277.28
2023-05-08T22:49:58.045Z,100273.53
2023-05-08T22:52:25.704Z,100273.81
2023-05-08T22:54:53.606Z,100282.38
2023-05-08T22:57:21.939Z,100281.28
2023-05-08T22:59:49.580Z,100282.38
2023-05-08T23:02:17.538Z,100281.28
2023-05-08T23:04:45.415Z,100275.66
2023-05-08T23:07:13.233Z,100279.19
2023-05-08T23:09:41.175Z,100279.72
2023-05-08T23:12:08.744Z,100283.69
2023-05-08T23:14:36.449Z,100286.69
2023-05-08T23:17:04.537Z,100288.25
2023-05-08T23:19:32.540Z,100290.09
2023-05-08T23:22:00.173Z,100279.91
2023-05-08T23:24:28.259Z,100290.94
2023-05-08T23:26:55.837Z,100286.38
2023-05-08T23:29:23.466Z,100280.50
2023-05-08T23:31:51.502Z,100279.66
2023-05-08T23:34:19.279Z,100275.84
2023-05-08T23:36:47.131Z,100275.63
2023-05-08T23:39:15.504Z,100270.53
2023-05-08T23:41:43.113Z,100271.13
2023-05-08T23:44:10.755Z,100271.37
2023-05-08T23:46:38.885Z,100269.25
2023-05-08T23:49:06.773Z,100263.31
2023-05-08T23:51:34.387Z,100270.84
2023-05-08T23:54:02.340Z,100259.56
2023-05-08T23:56:30.275Z,100258.53
2023-05-08T23:58:57.907Z,100255.31
